Racecast

Leah Driehorst

Temperance Bedford (MI) · 12 · SECMI D1MONROE · Compare head to head

Athlete rating 99.6 2020 XC season
Best race 126.0 XC
Races 59
Seasons 7 2014 — 2020

RankedNation #70170·MI #5422·MI D1 #2899·SEC #247·Team #118 ?

Rating scale ?

Cross Country

2020 XC 96.9

Temperance Bedford (MI) · Grade 12

Date Meet Event Result Place Rating Difficulty PR/SR Flags
2020-10-10 Indian Creek OFFICIAL 5000m 28:36.6 37th · 22nd on team 97.0 +0.039 RSR
2020-10-03 Indian Creek OFFICIAL 5000m 27:59.6 33rd · 26th on team 96.9 +0.039 SR CSR RSR

2019 XC 96.2

Temperance Bedford (MI) · Grade 11

Date Meet Event Result Place Rating Difficulty PR/SR Flags
2019-10-26 Lake Erie Metro Park OFFICIAL 5000m 25:59.5 97th · 20th on team 105.8 +0.055 SR CSR RSR
2019-10-17 Hudson Mills Metropark - OFFICIAL 5000m 27:13.6 135th · 19th on team 99.3 +0.036 SR CSR RSR
2019-10-12 Munson Park 5000m 27:58 41st · 10th on team 98.3 +0.054 SR CSR RSR
2019-09-28 Lake Erie Metro Park OFFICIAL 5000m 30:36.1 69th · 17th on team 89.3 +0.055 CSR
2019-09-24 Indian Creek OFFICIAL 5000m 28:15.7 77th · 13th on team 96.6 +0.039 SR CSR RSR
2019-09-10 Hudson Mills Metropark - OFFICIAL 5000m 30:35.3 99th · 8th on team 87.9 +0.036 SR CSR RSR

2018 XC 104.0

Temperance Bedford (MI) · Grade 10

Date Meet Event Result Place Rating Difficulty PR/SR Flags
2018-10-13 Munson Park 5000m 26:05.3 42nd · 9th on team 104.4 +0.054 ★CR CSR
2018-10-09 Indian Creek OFFICIAL 5000m 25:17 13th · 13th on team 108.6 +0.039 ★CR SR CSR RSR
2018-09-29 Lake Erie Metro Park OFFICIAL 5000m 26:21.5 101st · 13th on team 104.0 +0.055 SR CSR RSR
2018-09-06 Willow Metropark OFFICIAL 5000m 27:15.2 114th · 13th on team 99.2 +0.048 ★CR SR CSR RSR

2017 XC 106.5

Temperance Bedford (MI) · Grade 9

Date Meet Event Result Place Rating Difficulty PR/SR Flags
2017-10-28 Lake Erie Metro Park OFFICIAL 5000m 25:38.2 69th · 14th on team 106.6 +0.055
2017-10-19 Hudson Mills Metropark - OFFICIAL 5000m 25:35.4 110th · 9th on team 105.7 +0.036
2017-10-10 Indian Creek OFFICIAL 5000m 25:31.9 21st · 17th on team 105.9 +0.039 CR CSR
2017-09-30 Lake Erie Metro Park OFFICIAL 5000m 24:38.9 21st · 10th on team 110.3 +0.055 ★PR ★CR SR CSR RSR
2017-09-12 Hudson Mills Metropark - OFFICIAL 5000m 24:45.9 64th · 10th on team 108.7 +0.036 PR ★CR SR CSR RSR
2017-08-26 Boy Scout Camp Lakota 5000m 25:22.7 115th · 18th on team 101.8 -0.003 PR ★CR SR CSR RSR

2016 XC 114.5

Temperance Bedford (MI) · Grade 8

Date Meet Event Result Place Rating Difficulty PR/SR Flags
2016-10-15 Munson Park 3200m 15:49.1 44th · 14th on team 120.5 +0.034 ★PR ★CR SR CSR RSR
2016-10-12 Heritage Park (Adrian) OFFICIAL 3218m 16:22.9 67th · 16th on team 117.6 +0.046 ★CR SR CSR
2016-10-08 Monroe County Comm College 3218m 16:25.9 42nd · 11th on team 112.9 +0.007 ★CR SR CSR
2016-09-14 Rolling Hills 3000m 15:24.8 50th · 13th on team 118.4 +0.071 ★PR ★CR SR CSR RSR
2016-09-01 Eastwood HS 3200m 16:48.9 125th · 11th on team 103.2 -0.060 ★CR SR CSR RSR

2015 XC 111.9

Temperance Bedford (MI) · Grade 7

Date Meet Event Result Place Rating Difficulty PR/SR Flags
2015-10-24 Hudson Mills Metropark - OFFICIAL 3218m 16:02.9 57th · 4th on team 122.3 +0.062 ★PR ★CR SR CSR RSR
2015-10-17 Munson Park 3200m 16:24.6 45th · 16th on team 115.0 +0.034
2015-10-14 Munson Park 3200m 16:06 76th · 15th on team 116.4 +0.034 PR CR SR CSR
2015-09-30 Hudson Mills Metropark - OFFICIAL 3200m 16:39.6 86th · 15th on team 117.1 +0.062 PR ★CR SR CSR RSR
2015-09-26 Sterling State Park 3218m 17:04 64th · 14th on team 114.6 +0.057 PR ★CR SR CSR RSR
2015-09-16 Mill Pond Park 3621m 21:42.6 92nd · 19th on team 106.2 +0.099 ★PR ★CR SR CSR RSR
2015-09-12 Hedges Boyer Park 3200m 18:06 31st · 17th on team 91.5 -0.089 PR ★CR SR CSR RSR

2014 XC 126.0

Temperance Bedford (MI) · Grade 6

Date Meet Event Result Place Rating Difficulty PR/SR Flags
2014-09-20 Sterling State Park 2092m 9:50 53rd · 3rd on team 126.0 -0.003 ★PR ★CR ★R SR CSR RSR

Track & Field

2018 TF 92.4

Temperance Bedford (MI) · Grade 9

Date Meet Event Result Place Rating Difficulty PR/SR Flags
2018-05-24 Freshman Beck Invitational 400m 1:16.34 5th · 3rd on team -0.022
2018-05-24 Freshman Beck Invitational 200m 33.14 9th · 4th on team -0.022
2018-05-17 21st River Rat Girls JV Invitational 200m 33.05 15th · 4th on team -0.034 ★PR SR
2018-05-17 21st River Rat Girls JV Invitational 400m 1:15.59 9th · 3rd on team -0.034 ★PR SR
2018-05-07 SEC Red: Huron @ Bedford 200m 34.24 8th · 8th on team -0.033 PR SR
2018-05-07 SEC Red: Huron @ Bedford 400m 1:17.54 9th · 9th on team -0.033
2018-05-01 SEC Red: Bedford & Skyline @ Monroe 400m 1:18.78 10th · 3rd on team -0.032
2018-05-01 SEC Red: Bedford & Skyline @ Monroe 800m 3:18.92 13th · 4th on team 92.6 -0.032 RSR
2018-04-24 Saline/Bedford Dual 800m 3:17.83 12th · 5th on team 92.3 -0.042 ★PR SR RSR
2018-04-24 Saline/Bedford Dual 400m 1:17.41 8th · 7th on team -0.042 PR SR
2018-04-10 SEC Red Division - Pioneer @ Bedford 400m 1:18.14 11th · 4th on team -0.033 PR SR

2017 TF 104.7

Temperance Bedford (MI) · Grade 8

Date Meet Event Result Place Rating Difficulty PR/SR Flags
2017-05-17 Saline MS Hornet Relays 1600m 6:51.49 24th · 7th on team 108.1 -0.042 ★PR SR RSR
2017-05-15 SEC MS: Mill Creek (Dexter) vs. Bedford hj 3-08.00 -0.036
2017-05-15 SEC MS: Mill Creek (Dexter) vs. Bedford 1600m 7:04.05 9th · 6th on team 104.7 -0.036
2017-05-08 Temperance Bedford MS Vs. Tecumseh MS Vs. Ypsilanti MS hj 3-6 -0.033
2017-05-08 Temperance Bedford MS Vs. Tecumseh MS Vs. Ypsilanti MS 1600m 6:55 4th · 4th on team 107.3 -0.033 PR SR RSR
2017-04-26 Adrian vs. Bedford vs. LCS 3200m 16:39 2nd · 2nd on team 98.4 -0.024
2017-04-12 Monroe @ Bedford 3200m 15:20 1st · 1st on team 105.1 -0.033 ★PR SR RSR

2016 TF 102.9

Temperance Bedford (MI) · Grade 7

Date Meet Event Result Place Rating Difficulty PR/SR Flags
2016-05-18 Saline Hornet MS Relays 1600m 7:02.71 38th · 7th on team 104.1 -0.042 PR SR
2016-05-17 Bedford @ Chelsea 1600m 7:07.49 7th · 4th on team 104.4 -0.029 PR SR
2016-05-12 Bedford at Lincoln 3200m 15:45 2nd · 2nd on team 102.1 -0.032
2016-05-09 Dexter Mill Creek @ Bedford 3200m 15:23 2nd · 2nd on team 104.2 -0.033 PR SR
2016-05-05 Bedford MS @ Saline MS 1600m 7:16 10th · 5th on team 101.9 -0.038 PR SR
2016-05-02 Bedford at Ypsilanti 3200m 15:57 2nd · 2nd on team 101.0 -0.029
2016-04-28 Monroe @ Bedford 3200m 15:32 2nd · 2nd on team 104.6 -0.033 PR SR RSR
2016-04-25 Tecumseh @ Bedford hj 3'10 -0.033
2016-04-25 Tecumseh @ Bedford 1600m 7:24 3rd · 3rd on team 100.3 -0.033 PR SR
2016-04-21 Adrian @ Bedford 3200m 15:36 2nd · 2nd on team 103.5 -0.033 PR SR RSR